createdAt,value
2018-10-05T00:00:56.187Z,92.14
2018-10-05T00:01:56.176Z,91.84
2018-10-05T00:02:56.165Z,91.84
2018-10-05T00:03:56.153Z,91.84
2018-10-05T00:04:56.143Z,91.94
2018-10-05T00:05:56.146Z,92.04
2018-10-05T00:06:56.122Z,91.74
2018-10-05T00:07:56.111Z,91.84
2018-10-05T00:08:56.099Z,92.14
2018-10-05T00:09:56.108Z,91.74
2018-10-05T00:10:56.079Z,92.14
2018-10-05T00:11:56.067Z,92.04
2018-10-05T00:12:56.173Z,91.84
2018-10-05T00:13:56.046Z,92.50
2018-10-05T00:14:56.038Z,92.76
2018-10-05T00:15:56.037Z,92.35
2018-10-05T00:16:56.012Z,92.60
2018-10-05T00:17:56.005Z,92.70
2018-10-05T00:18:55.991Z,92.76
2018-10-05T00:19:55.993Z,92.91
2018-10-05T00:20:55.971Z,92.80
2018-10-05T00:21:55.959Z,92.76
2018-10-05T00:22:55.961Z,92.66
2018-10-05T00:23:55.937Z,91.88
2018-10-05T00:24:55.939Z,92.29
2018-10-05T00:25:55.931Z,92.29
2018-10-05T00:26:55.905Z,91.78
2018-10-05T00:27:55.894Z,92.08
2018-10-05T00:28:55.882Z,92.08
2018-10-05T00:29:55.910Z,92.19
2018-10-05T00:30:55.861Z,91.99
2018-10-05T00:31:55.849Z,91.99
2018-10-05T00:32:55.839Z,91.88
2018-10-05T00:33:55.828Z,92.08
2018-10-05T00:34:55.817Z,91.78
2018-10-05T00:35:55.830Z,91.99
2018-10-05T00:36:55.795Z,91.78
2018-10-05T00:37:55.811Z,91.99
2018-10-05T00:38:55.773Z,91.88
2018-10-05T00:39:55.763Z,92.29
2018-10-05T00:40:55.751Z,92.29
2018-10-05T00:41:55.754Z,91.88
2018-10-05T00:42:55.730Z,91.99
2018-10-05T00:43:55.718Z,91.99
2018-10-05T00:44:55.707Z,92.08
2018-10-05T00:45:55.713Z,92.13
2018-10-05T00:46:55.687Z,92.40
2018-10-05T00:47:55.688Z,91.99
2018-10-05T00:48:55.665Z,91.93
2018-10-05T00:49:55.654Z,92.19
2018-10-05T00:50:55.663Z,91.78
2018-10-05T00:51:55.633Z,91.88
2018-10-05T00:52:55.658Z,91.78
2018-10-05T00:53:55.610Z,91.78
2018-10-05T00:54:55.602Z,92.08
2018-10-05T00:55:55.588Z,91.67
2018-10-05T00:56:55.578Z,91.93
2018-10-05T00:57:55.580Z,92.50
2018-10-05T00:58:55.556Z,92.13
2018-10-05T00:59:55.543Z,92.85
2018-10-05T01:00:55.535Z,92.85
2018-10-05T01:01:55.621Z,92.85
2018-10-05T01:02:55.512Z,92.64
2018-10-05T01:03:55.501Z,92.95
2018-10-05T01:04:55.490Z,92.74
2018-10-05T01:05:55.478Z,92.85
2018-10-05T01:06:55.484Z,92.74
2018-10-05T01:07:55.459Z,92.95
2018-10-05T01:08:55.447Z,93.05
2018-10-05T01:09:55.449Z,92.74
2018-10-05T01:10:55.425Z,92.44
2018-10-05T01:11:55.414Z,91.93
2018-10-05T01:12:55.417Z,92.13
2018-10-05T01:13:55.426Z,92.54
2018-10-05T01:14:55.382Z,92.23
2018-10-05T01:15:55.370Z,91.93
2018-10-05T01:16:55.360Z,92.03
2018-10-05T01:17:55.362Z,92.13
2018-10-05T01:18:55.340Z,91.82
2018-10-05T01:19:55.329Z,91.82
2018-10-05T01:20:55.317Z,91.86
2018-10-05T01:21:55.307Z,92.17
2018-10-05T01:22:55.318Z,91.97
2018-10-05T01:23:55.285Z,91.97
2018-10-05T01:24:55.332Z,92.33
2018-10-05T01:25:55.263Z,92.95
2018-10-05T01:26:55.252Z,92.95
2018-10-05T01:27:55.241Z,92.95
2018-10-05T01:28:55.247Z,93.05
2018-10-05T01:29:55.219Z,92.95
2018-10-05T01:30:55.209Z,92.95
2018-10-05T01:31:55.197Z,92.85
2018-10-05T01:32:55.188Z,92.85
2018-10-05T01:33:55.175Z,92.95
2018-10-05T01:34:55.177Z,93.36
2018-10-05T01:35:55.156Z,92.85
2018-10-05T01:36:55.162Z,93.16
2018-10-05T01:37:55.132Z,93.36
2018-10-05T01:38:55.196Z,92.54
2018-10-05T01:39:55.124Z,92.69
2018-10-05T01:40:55.099Z,92.54
2018-10-05T01:41:55.089Z,92.44
2018-10-05T01:42:55.077Z,92.33
2018-10-05T01:43:55.089Z,92.85
2018-10-05T01:44:55.060Z,92.95
2018-10-05T01:45:55.044Z,92.85
2018-10-05T01:46:55.036Z,93.10
2018-10-05T01:47:55.024Z,93.26
2018-10-05T01:48:55.012Z,92.89
2018-10-05T01:49:55.015Z,93.20
2018-10-05T01:50:54.992Z,92.99
2018-10-05T01:51:54.980Z,93.20
2018-10-05T01:52:54.969Z,92.58
2018-10-05T01:53:54.959Z,92.44
2018-10-05T01:54:54.963Z,92.69
2018-10-05T01:55:54.952Z,92.38
2018-10-05T01:56:54.925Z,91.86
2018-10-05T01:57:54.922Z,91.97
2018-10-05T01:58:54.906Z,92.07
2018-10-05T01:59:54.912Z,91.86
2018-10-05T02:00:54.883Z,92.27
2018-10-05T02:01:54.871Z,92.17
2018-10-05T02:02:54.861Z,91.97
2018-10-05T02:03:54.851Z,92.48
2018-10-05T02:04:54.839Z,91.45
2018-10-05T02:05:54.843Z,91.86
2018-10-05T02:06:54.820Z,91.86
2018-10-05T02:07:54.808Z,91.76
2018-10-05T02:08:54.796Z,91.76
2018-10-05T02:09:54.786Z,92.11
2018-10-05T02:10:54.787Z,92.01
2018-10-05T02:11:54.776Z,91.91
2018-10-05T02:12:54.754Z,91.19
2018-10-05T02:13:54.745Z,91.49
2018-10-05T02:14:54.755Z,91.80
2018-10-05T02:15:54.721Z,91.91
2018-10-05T02:16:54.710Z,91.49
2018-10-05T02:17:54.699Z,91.49
2018-10-05T02:18:54.690Z,91.70
2018-10-05T02:19:54.677Z,92.01
2018-10-05T02:20:54.680Z,91.70
2018-10-05T02:21:54.657Z,91.80
2018-10-05T02:22:54.644Z,91.80
2018-10-05T02:23:54.634Z,92.01
2018-10-05T02:24:54.623Z,92.42
2018-10-05T02:25:54.634Z,91.80
2018-10-05T02:26:54.601Z,92.21
2018-10-05T02:27:54.590Z,92.11
2018-10-05T02:28:54.584Z,92.63
2018-10-05T02:29:54.568Z,92.83
2018-10-05T02:30:54.558Z,92.52
2018-10-05T02:31:54.588Z,92.21
2018-10-05T02:32:54.583Z,92.32
2018-10-05T02:33:54.525Z,92.01
2018-10-05T02:34:54.514Z,91.91
2018-10-05T02:35:54.504Z,92.32
2018-10-05T02:36:54.493Z,92.21
2018-10-05T02:37:54.522Z,91.80
2018-10-05T02:38:54.472Z,92.11
2018-10-05T02:39:54.460Z,92.05
2018-10-05T02:40:54.451Z,91.85
2018-10-05T02:41:54.439Z,91.85
2018-10-05T02:42:54.428Z,91.70
2018-10-05T02:43:54.431Z,91.33
2018-10-05T02:44:54.407Z,91.85
2018-10-05T02:45:54.396Z,92.16
2018-10-05T02:46:54.390Z,91.95
2018-10-05T02:47:54.390Z,91.85
2018-10-05T02:48:54.365Z,92.16
2018-10-05T02:49:54.354Z,91.95
2018-10-05T02:50:54.343Z,91.85
2018-10-05T02:51:54.331Z,91.95
2018-10-05T02:52:54.339Z,91.23
2018-10-05T02:53:54.308Z,91.23
2018-10-05T02:54:54.298Z,91.85
2018-10-05T02:55:54.287Z,91.74
2018-10-05T02:56:54.276Z,92.05
2018-10-05T02:57:54.269Z,92.05
2018-10-05T02:58:54.268Z,91.85
2018-10-05T02:59:54.245Z,91.85
2018-10-05T03:00:54.234Z,91.44
2018-10-05T03:01:54.225Z,91.64
2018-10-05T03:02:54.219Z,91.53
2018-10-05T03:03:54.215Z,91.47
2018-10-05T03:04:54.190Z,91.38
2018-10-05T03:05:54.199Z,91.68
2018-10-05T03:06:54.168Z,91.78
2018-10-05T03:07:54.156Z,91.58
2018-10-05T03:08:54.146Z,91.78
2018-10-05T03:09:54.135Z,91.68
2018-10-05T03:10:54.130Z,91.99
2018-10-05T03:11:54.129Z,92.10
2018-10-05T03:12:54.105Z,92.10
2018-10-05T03:13:54.093Z,91.99
2018-10-05T03:14:54.098Z,91.89
2018-10-05T03:15:54.073Z,91.89
2018-10-05T03:16:54.073Z,92.10
2018-10-05T03:17:54.049Z,91.99
2018-10-05T03:18:54.039Z,91.89
2018-10-05T03:19:54.091Z,91.99
2018-10-05T03:20:54.016Z,91.93
2018-10-05T03:21:54.019Z,92.14
2018-10-05T03:22:53.994Z,92.10
2018-10-05T03:23:53.985Z,91.83
2018-10-05T03:24:53.973Z,91.99
2018-10-05T03:25:53.977Z,91.99
2018-10-05T03:26:53.951Z,91.93
2018-10-05T03:27:53.956Z,91.62
2018-10-05T03:28:53.930Z,92.55
2018-10-05T03:29:53.918Z,92.03
2018-10-05T03:30:53.910Z,92.44
2018-10-05T03:31:53.898Z,92.61
2018-10-05T03:32:53.925Z,92.30
2018-10-05T03:33:53.876Z,92.30
2018-10-05T03:34:53.864Z,92.14
2018-10-05T03:35:53.854Z,92.03
2018-10-05T03:36:53.843Z,92.14
2018-10-05T03:37:53.832Z,92.14
2018-10-05T03:38:53.841Z,92.44
2018-10-05T03:39:53.808Z,92.30
2018-10-05T03:40:53.799Z,92.65
2018-10-05T03:41:53.789Z,92.03
2018-10-05T03:42:53.778Z,91.47
2018-10-05T03:43:53.767Z,91.78
2018-10-05T03:44:53.769Z,92.03
2018-10-05T03:45:53.745Z,92.14
2018-10-05T03:46:53.733Z,92.03
2018-10-05T03:47:53.737Z,92.14
2018-10-05T03:48:53.726Z,92.14
2018-10-05T03:49:53.703Z,92.03
2018-10-05T03:50:53.706Z,92.14
2018-10-05T03:51:53.679Z,92.03
2018-10-05T03:52:53.669Z,92.24
2018-10-05T03:53:53.676Z,92.14
2018-10-05T03:54:53.647Z,92.24
2018-10-05T03:55:53.635Z,91.93
2018-10-05T03:56:53.624Z,91.72
2018-10-05T03:57:53.613Z,92.24
2018-10-05T03:58:53.602Z,92.03
2018-10-05T03:59:53.606Z,91.31
2018-10-05T04:00:53.580Z,91.72
2018-10-05T04:01:53.569Z,91.31
2018-10-05T04:02:53.558Z,91.56
2018-10-05T04:03:53.549Z,91.87
2018-10-05T04:04:53.576Z,91.25
2018-10-05T04:05:53.525Z,91.72
2018-10-05T04:06:53.514Z,91.36
2018-10-05T04:07:53.503Z,91.66
2018-10-05T04:08:53.493Z,91.66
2018-10-05T04:09:53.484Z,91.72
2018-10-05T04:10:53.484Z,91.77
2018-10-05T04:11:53.462Z,91.77
2018-10-05T04:12:53.448Z,91.77
2018-10-05T04:13:53.451Z,91.77
2018-10-05T04:14:53.448Z,91.46
2018-10-05T04:15:53.420Z,92.08
2018-10-05T04:16:53.404Z,91.66
2018-10-05T04:17:53.392Z,91.56
2018-10-05T04:18:53.382Z,91.36
2018-10-05T04:19:53.371Z,91.71
2018-10-05T04:20:53.375Z,91.66
2018-10-05T04:21:53.349Z,91.77
2018-10-05T04:22:53.340Z,92.18
2018-10-05T04:23:53.328Z,92.08
2018-10-05T04:24:53.318Z,91.87
2018-10-05T04:25:53.315Z,91.87
2018-10-05T04:26:53.295Z,91.97
2018-10-05T04:27:53.285Z,91.97
2018-10-05T04:28:53.272Z,92.18
2018-10-05T04:29:53.261Z,91.87
2018-10-05T04:30:53.266Z,91.87
2018-10-05T04:31:53.245Z,91.66
2018-10-05T04:32:53.228Z,91.56
2018-10-05T04:33:53.217Z,91.97
2018-10-05T04:34:53.206Z,92.08
2018-10-05T04:35:53.202Z,92.08
2018-10-05T04:36:53.200Z,92.08
2018-10-05T04:37:53.174Z,92.29
2018-10-05T04:38:53.166Z,92.08
2018-10-05T04:39:53.152Z,92.18
2018-10-05T04:40:53.190Z,92.29
2018-10-05T04:41:53.129Z,91.66
2018-10-05T04:42:53.118Z,92.18
2018-10-05T04:43:53.107Z,92.08
2018-10-05T04:44:53.097Z,92.08
2018-10-05T04:45:53.085Z,91.66
2018-10-05T04:46:53.111Z,92.08
2018-10-05T04:47:53.086Z,92.49
2018-10-05T04:48:53.061Z,92.49
2018-10-05T04:49:53.051Z,92.38
2018-10-05T04:50:53.033Z,92.29
2018-10-05T04:51:53.021Z,92.18
2018-10-05T04:52:53.021Z,92.43
2018-10-05T04:53:52.997Z,91.87
2018-10-05T04:54:52.986Z,91.87
2018-10-05T04:55:52.975Z,91.97
2018-10-05T04:56:53.012Z,92.18
2018-10-05T04:57:52.971Z,92.29
2018-10-05T04:58:52.943Z,92.12
2018-10-05T04:59:52.932Z,92.22
2018-10-05T05:00:52.921Z,91.56
2018-10-05T05:01:52.911Z,91.77
2018-10-05T05:02:52.910Z,92.22
2018-10-05T05:03:52.891Z,92.18
2018-10-05T05:04:52.878Z,91.97
2018-10-05T05:05:52.866Z,92.02
2018-10-05T05:06:52.857Z,91.66
2018-10-05T05:07:52.857Z,92.33
2018-10-05T05:08:52.833Z,91.05
2018-10-05T05:09:52.823Z,91.60
2018-10-05T05:10:52.811Z,91.71
2018-10-05T05:11:52.800Z,91.71
2018-10-05T05:12:52.799Z,91.81
2018-10-05T05:13:52.788Z,91.77
2018-10-05T05:14:52.794Z,91.71
2018-10-05T05:15:52.760Z,91.81
2018-10-05T05:16:52.745Z,91.50
2018-10-05T05:17:52.737Z,91.60
2018-10-05T05:18:52.724Z,91.40
2018-10-05T05:19:52.711Z,91.60
2018-10-05T05:20:52.713Z,91.60
2018-10-05T05:21:52.690Z,91.40
2018-10-05T05:22:52.684Z,91.60
2018-10-05T05:23:52.668Z,91.81
2018-10-05T05:24:52.658Z,91.71
2018-10-05T05:25:52.656Z,91.81
2018-10-05T05:26:52.637Z,91.60
2018-10-05T05:27:52.627Z,92.33
2018-10-05T05:28:52.613Z,92.22
2018-10-05T05:29:52.602Z,92.33
2018-10-05T05:30:52.603Z,92.12
2018-10-05T05:31:52.580Z,92.22
2018-10-05T05:32:52.575Z,92.63
2018-10-05T05:33:52.575Z,92.53
2018-10-05T05:34:52.547Z,92.12
2018-10-05T05:35:52.557Z,92.43
2018-10-05T05:36:52.525Z,92.63
2018-10-05T05:37:52.515Z,92.22
2018-10-05T05:38:52.504Z,92.08
2018-10-05T05:39:52.494Z,92.22
2018-10-05T05:40:52.481Z,92.33
2018-10-05T05:41:52.490Z,92.22
2018-10-05T05:42:52.460Z,92.84
2018-10-05T05:43:52.448Z,93.15
2018-10-05T05:44:52.439Z,92.33
2018-10-05T05:45:52.427Z,92.18
2018-10-05T05:46:52.482Z,92.18
2018-10-05T05:47:52.416Z,93.21
2018-10-05T05:48:52.396Z,92.69
2018-10-05T05:49:52.383Z,92.69
2018-10-05T05:50:52.372Z,92.33
2018-10-05T05:51:52.361Z,92.38
2018-10-05T05:52:52.388Z,92.49
2018-10-05T05:53:52.375Z,92.18
2018-10-05T05:54:52.328Z,92.59
2018-10-05T05:55:52.320Z,92.18
2018-10-05T05:56:52.308Z,92.18
2018-10-05T05:57:52.298Z,92.90
2018-10-05T05:58:52.310Z,93.21
2018-10-05T05:59:52.279Z,92.90
2018-10-05T06:00:52.264Z,93.16
2018-10-05T06:01:52.256Z,92.96
2018-10-05T06:02:52.242Z,93.06
2018-10-05T06:03:52.231Z,93.48
2018-10-05T06:04:52.235Z,93.16
2018-10-05T06:05:52.212Z,93.43
2018-10-05T06:06:52.201Z,93.43
2018-10-05T06:07:52.191Z,93.02
2018-10-05T06:08:52.188Z,93.02
2018-10-05T06:09:52.168Z,93.02
2018-10-05T06:10:52.157Z,93.12
2018-10-05T06:11:52.147Z,93.12
2018-10-05T06:12:52.156Z,93.54
2018-10-05T06:13:52.143Z,92.71
2018-10-05T06:14:52.115Z,92.77
2018-10-05T06:15:52.156Z,92.82
2018-10-05T06:16:52.092Z,92.82
2018-10-05T06:17:52.080Z,92.77
2018-10-05T06:18:52.069Z,92.87
2018-10-05T06:19:52.075Z,92.97
2018-10-05T06:20:52.050Z,92.97
2018-10-05T06:21:52.224Z,93.49
2018-10-05T06:22:52.026Z,93.29
2018-10-05T06:23:52.016Z,92.93
2018-10-05T06:24:52.044Z,92.83
2018-10-05T06:25:51.994Z,93.14
2018-10-05T06:26:51.984Z,92.83
2018-10-05T06:27:51.972Z,93.20
2018-10-05T06:28:51.961Z,92.99
2018-10-05T06:29:51.950Z,92.38
2018-10-05T06:30:52.037Z,92.85
2018-10-05T06:31:51.927Z,92.44
2018-10-05T06:32:51.936Z,92.33
2018-10-05T06:33:51.905Z,91.78
2018-10-05T06:34:51.896Z,91.16
2018-10-05T06:35:51.898Z,91.06
2018-10-05T06:36:51.887Z,90.40
2018-10-05T06:37:51.863Z,90.40
2018-10-05T06:38:51.852Z,89.99
2018-10-05T06:39:51.844Z,90.16
2018-10-05T06:40:51.831Z,89.33
2018-10-05T06:41:51.920Z,89.33
2018-10-05T06:42:51.808Z,88.82
2018-10-05T06:43:51.804Z,88.31
2018-10-05T06:44:51.788Z,88.68
2018-10-05T06:45:51.774Z,88.17
2018-10-05T06:46:51.762Z,88.37
2018-10-05T06:47:51.768Z,88.37
2018-10-05T06:48:51.755Z,88.37
2018-10-05T06:49:51.744Z,89.09
2018-10-05T06:50:51.737Z,89.09
2018-10-05T06:51:51.708Z,88.68
2018-10-05T06:52:51.699Z,88.53
2018-10-05T06:53:51.684Z,88.33
2018-10-05T06:54:51.674Z,88.33
2018-10-05T06:55:51.666Z,88.53
2018-10-05T06:56:51.665Z,87.98
2018-10-05T06:57:51.640Z,87.57
2018-10-05T06:58:51.628Z,87.57
2018-10-05T06:59:51.619Z,87.26
2018-10-05T07:00:51.607Z,86.61
2018-10-05T07:01:51.643Z,86.40
2018-10-05T07:02:51.585Z,86.36
2018-10-05T07:03:51.573Z,86.26
2018-10-05T07:04:51.563Z,86.05
2018-10-05T07:05:51.552Z,86.05
2018-10-05T07:06:51.541Z,86.05
2018-10-05T07:07:51.780Z,86.46
2018-10-05T07:08:51.519Z,85.10
2018-10-05T07:09:51.508Z,84.58
2018-10-05T07:10:51.499Z,85.06
2018-10-05T07:11:51.527Z,84.44
2018-10-05T07:12:51.475Z,84.24
2018-10-05T07:13:51.465Z,84.71
2018-10-05T07:14:51.453Z,84.65
2018-10-05T07:15:51.490Z,84.50
2018-10-05T07:16:51.490Z,84.61
2018-10-05T07:17:51.434Z,83.89
2018-10-05T07:18:51.436Z,84.09
2018-10-05T07:19:51.399Z,84.20
2018-10-05T07:20:51.389Z,83.75
2018-10-05T07:21:51.399Z,83.44
2018-10-05T07:22:51.365Z,82.22
2018-10-05T07:23:51.357Z,82.89
2018-10-05T07:24:51.344Z,82.65
2018-10-05T07:25:51.335Z,81.02
2018-10-05T07:26:51.323Z,80.78
2018-10-05T07:27:51.329Z,81.49
2018-10-05T07:28:51.299Z,80.54
2018-10-05T07:29:51.287Z,80.43
2018-10-05T07:30:51.277Z,79.32
2018-10-05T07:31:51.265Z,78.36
2018-10-05T07:32:51.268Z,78.56
2018-10-05T07:33:51.244Z,77.81
2018-10-05T07:34:51.284Z,77.17
2018-10-05T07:35:51.223Z,76.15
2018-10-05T07:36:51.281Z,76.04
2018-10-05T07:37:51.215Z,76.31
2018-10-05T07:38:51.190Z,76.52
2018-10-05T07:39:51.179Z,76.48
2018-10-05T07:40:51.168Z,75.98
2018-10-05T07:41:51.173Z,74.92
2018-10-05T07:42:51.179Z,75.33
2018-10-05T07:43:51.134Z,75.09
2018-10-05T07:44:51.122Z,73.57
2018-10-05T07:45:51.111Z,72.75
2018-10-05T07:46:51.115Z,72.72
2018-10-05T07:47:51.089Z,71.50
2018-10-05T07:48:51.098Z,71.91
2018-10-05T07:49:51.067Z,72.82
2018-10-05T07:50:51.057Z,72.17
2018-10-05T07:51:51.076Z,71.06
2018-10-05T07:52:51.035Z,70.32
2018-10-05T07:53:51.024Z,71.03
2018-10-05T07:54:51.037Z,71.53
2018-10-05T07:55:51.002Z,72.55
2018-10-05T07:56:50.991Z,70.42
2018-10-05T07:57:51.021Z,69.27
2018-10-05T07:58:50.971Z,69.57
2018-10-05T07:59:50.959Z,68.96
2018-10-05T08:00:50.964Z,69.40
2018-10-05T08:01:50.936Z,69.07
2018-10-05T08:02:50.927Z,68.90
2018-10-05T08:03:50.914Z,69.17
2018-10-05T08:04:50.918Z,69.47
2018-10-05T08:05:50.892Z,68.87
2018-10-05T08:06:50.881Z,68.76
2018-10-05T08:07:50.871Z,68.56
2018-10-05T08:08:50.861Z,68.83
2018-10-05T08:09:50.868Z,68.63
2018-10-05T08:10:50.838Z,67.72
2018-10-05T08:11:50.828Z,67.48
2018-10-05T08:12:50.816Z,67.72
2018-10-05T08:13:50.805Z,67.21
2018-10-05T08:14:50.795Z,67.38
2018-10-05T08:15:50.799Z,67.28
2018-10-05T08:16:50.785Z,67.58
2018-10-05T08:17:50.762Z,67.28
2018-10-05T08:18:50.751Z,67.89
2018-10-05T08:19:50.739Z,67.55
2018-10-05T08:20:50.745Z,67.65
2018-10-05T08:21:50.719Z,68.33
2018-10-05T08:22:50.707Z,66.30
2018-10-05T08:23:50.695Z,65.87
2018-10-05T08:24:50.685Z,66.88
2018-10-05T08:25:50.687Z,65.53
2018-10-05T08:26:50.667Z,66.44
2018-10-05T08:27:50.687Z,65.91
2018-10-05T08:28:50.641Z,67.49
2018-10-05T08:29:50.631Z,67.46
2018-10-05T08:30:50.620Z,64.13
2018-10-05T08:31:50.609Z,62.82
2018-10-05T08:32:50.600Z,61.71
2018-10-05T08:33:50.646Z,63.62
2018-10-05T08:34:50.576Z,62.38
2018-10-05T08:35:50.578Z,63.09
2018-10-05T08:36:50.555Z,61.57
2018-10-05T08:37:50.546Z,61.47
2018-10-05T08:38:50.534Z,62.08
2018-10-05T08:39:50.565Z,62.08
2018-10-05T08:40:50.527Z,60.66
2018-10-05T08:41:50.503Z,60.87
2018-10-05T08:42:50.492Z,61.55
2018-10-05T08:43:50.483Z,61.47
2018-10-05T08:44:50.491Z,61.68
2018-10-05T08:45:50.571Z,61.55
2018-10-05T08:46:50.450Z,60.74
2018-10-05T08:47:50.439Z,61.24
2018-10-05T08:48:50.427Z,60.81
2018-10-05T08:49:50.416Z,60.17
2018-10-05T08:50:50.419Z,59.27
2018-10-05T08:51:50.469Z,59.70
2018-10-05T08:52:50.384Z,60.00
2018-10-05T08:53:50.371Z,60.21
2018-10-05T08:54:50.360Z,59.80
2018-10-05T08:55:50.371Z,59.67
2018-10-05T08:56:50.345Z,61.29
2018-10-05T08:57:50.331Z,60.85
2018-10-05T08:58:50.324Z,59.64
2018-10-05T08:59:50.313Z,58.91
2018-10-05T09:00:50.292Z,57.70
2018-10-05T09:01:50.298Z,57.50
2018-10-05T09:02:50.271Z,58.21
2018-10-05T09:03:50.263Z,57.81
2018-10-05T09:04:50.248Z,58.68
2018-10-05T09:05:50.275Z,58.58
2018-10-05T09:06:50.242Z,58.65
2018-10-05T09:07:50.252Z,58.55
2018-10-05T09:08:50.207Z,57.24
2018-10-05T09:09:50.198Z,57.12
2018-10-05T09:10:50.184Z,57.02
2018-10-05T09:11:50.177Z,57.19
2018-10-05T09:12:50.163Z,58.60
2018-10-05T09:13:50.194Z,55.46
2018-10-05T09:14:50.147Z,57.46
2018-10-05T09:15:50.131Z,55.73
2018-10-05T09:16:50.124Z,54.48
2018-10-05T09:17:50.196Z,56.29
2018-10-05T09:18:50.101Z,57.52
2018-10-05T09:19:50.104Z,55.91
2018-10-05T09:20:50.078Z,57.22
2018-10-05T09:21:50.069Z,57.29
2018-10-05T09:22:50.070Z,56.59
2018-10-05T09:23:50.047Z,57.06
2018-10-05T09:24:50.038Z,54.85
2018-10-05T09:25:50.040Z,55.48
2018-10-05T09:26:50.014Z,55.46
2018-10-05T09:27:50.022Z,53.95
2018-10-05T09:28:49.992Z,55.46
2018-10-05T09:29:49.984Z,56.03
2018-10-05T09:30:50.080Z,53.92
2018-10-05T09:31:49.961Z,53.52
2018-10-05T09:32:49.966Z,54.25
2018-10-05T09:33:49.957Z,54.78
2018-10-05T09:34:49.943Z,55.76
2018-10-05T09:35:49.922Z,56.43
2018-10-05T09:36:49.908Z,54.20
2018-10-05T09:37:49.942Z,53.20
2018-10-05T09:38:49.927Z,52.49
2018-10-05T09:39:49.875Z,53.80
2018-10-05T09:40:49.868Z,52.39
2018-10-05T09:41:49.859Z,53.72
2018-10-05T09:42:49.841Z,52.92
2018-10-05T09:43:49.833Z,54.93
2018-10-05T09:44:49.854Z,53.90
2018-10-05T09:45:49.816Z,54.77
2018-10-05T09:46:49.802Z,55.05
2018-10-05T09:47:49.791Z,54.22
2018-10-05T09:48:49.777Z,54.70
2018-10-05T09:49:49.770Z,53.07
2018-10-05T09:50:49.770Z,53.34
2018-10-05T09:51:49.774Z,52.44
2018-10-05T09:52:49.739Z,52.72
2018-10-05T09:53:49.731Z,52.89
2018-10-05T09:54:49.748Z,52.19
2018-10-05T09:55:49.707Z,53.57
2018-10-05T09:56:49.694Z,48.69
2018-10-05T09:57:49.684Z,50.54
2018-10-05T09:58:49.673Z,50.64
2018-10-05T09:59:49.782Z,52.07
2018-10-05T10:00:49.667Z,51.17
2018-10-05T10:01:49.643Z,51.17
2018-10-05T10:02:49.643Z,50.19
2018-10-05T10:03:49.619Z,52.82
2018-10-05T10:04:49.610Z,51.94
2018-10-05T10:05:49.614Z,53.17
2018-10-05T10:06:49.586Z,54.77
2018-10-05T10:07:49.633Z,54.22
2018-10-05T10:08:49.568Z,52.62
2018-10-05T10:09:49.556Z,52.87
2018-10-05T10:10:49.593Z,51.67
2018-10-05T10:11:49.535Z,52.24
2018-10-05T10:12:49.522Z,51.04
2018-10-05T10:13:49.522Z,51.64
2018-10-05T10:14:49.504Z,51.64
2018-10-05T10:15:49.495Z,50.64
2018-10-05T10:16:49.499Z,51.25
2018-10-05T10:17:49.469Z,51.22
2018-10-05T10:18:49.459Z,52.62
2018-10-05T10:19:49.451Z,49.09
2018-10-05T10:20:49.443Z,52.29
2018-10-05T10:21:49.461Z,51.37
2018-10-05T10:22:49.545Z,50.67
2018-10-05T10:23:49.407Z,50.84
2018-10-05T10:24:49.397Z,48.94
2018-10-05T10:25:49.384Z,49.92
2018-10-05T10:26:49.374Z,47.55
2018-10-05T10:27:49.369Z,48.55
2018-10-05T10:28:49.599Z,46.97
2018-10-05T10:29:49.360Z,48.97
2018-10-05T10:30:49.332Z,47.77
2018-10-05T10:31:49.321Z,49.47
2018-10-05T10:32:49.312Z,49.47
2018-10-05T10:33:49.371Z,46.95
2018-10-05T10:34:49.299Z,48.17
2018-10-05T10:35:49.292Z,48.49
2018-10-05T10:36:49.336Z,48.29
2018-10-05T10:37:49.258Z,48.79
2018-10-05T10:38:49.262Z,46.92
2018-10-05T10:39:49.337Z,47.94
2018-10-05T10:40:49.226Z,49.54
2018-10-05T10:41:49.216Z,52.12
2018-10-05T10:42:49.205Z,48.02
2018-10-05T10:43:49.218Z,47.81
2018-10-05T10:44:49.186Z,47.92
2018-10-05T10:45:49.176Z,48.90
2018-10-05T10:46:49.164Z,50.49
2018-10-05T10:47:49.158Z,48.17
2018-10-05T10:48:49.142Z,46.87
2018-10-05T10:49:49.163Z,48.77
2018-10-05T10:50:49.125Z,48.75
2018-10-05T10:51:49.111Z,48.75
2018-10-05T10:52:49.102Z,47.05
2018-10-05T10:53:49.094Z,46.92
2018-10-05T10:54:49.079Z,48.93
2018-10-05T10:55:49.089Z,49.00
2018-10-05T10:56:49.058Z,46.80
2018-10-05T10:57:49.047Z,46.43
2018-10-05T10:58:49.039Z,46.05
2018-10-05T10:59:49.026Z,46.95
2018-10-05T11:00:49.137Z,48.02
2018-10-05T11:01:49.021Z,47.03
2018-10-05T11:02:49.036Z,46.73
2018-10-05T11:03:48.986Z,47.05
2018-10-05T11:04:49.000Z,46.87
2018-10-05T11:05:48.965Z,48.47
2018-10-05T11:06:48.952Z,48.27
2018-10-05T11:07:48.944Z,48.94
2018-10-05T11:08:48.945Z,46.92
2018-10-05T11:09:48.924Z,47.03
2018-10-05T11:10:48.922Z,48.90
2018-10-05T11:11:48.902Z,48.80
2018-10-05T11:12:48.891Z,47.58
2018-10-05T11:13:48.897Z,48.68
2018-10-05T11:14:48.882Z,44.19
2018-10-05T11:15:48.872Z,45.51
2018-10-05T11:16:48.885Z,48.13
2018-10-05T11:17:48.838Z,49.20
2018-10-05T11:18:48.867Z,48.80
2018-10-05T11:19:48.816Z,47.68
2018-10-05T11:20:48.805Z,46.96
2018-10-05T11:21:48.797Z,45.47
2018-10-05T11:22:48.784Z,45.68
2018-10-05T11:23:48.773Z,46.28
2018-10-05T11:24:48.777Z,45.78
2018-10-05T11:25:48.755Z,46.11
2018-10-05T11:26:48.741Z,45.53
2018-10-05T11:27:48.745Z,45.65
2018-10-05T11:28:48.917Z,46.47
2018-10-05T11:29:48.855Z,48.27
2018-10-05T11:30:48.700Z,47.27
2018-10-05T11:31:48.689Z,49.35
2018-10-05T11:32:48.678Z,49.02
2018-10-05T11:33:48.727Z,48.80
2018-10-05T11:34:48.674Z,46.78
2018-10-05T11:35:48.646Z,47.45
2018-10-05T11:36:48.636Z,47.45
2018-10-05T11:37:48.628Z,45.54
2018-10-05T11:38:48.618Z,46.54
2018-10-05T11:39:48.643Z,46.81
2018-10-05T11:40:48.681Z,45.62
2018-10-05T11:41:48.586Z,43.85
2018-10-05T11:42:48.575Z,44.96
2018-10-05T11:43:48.564Z,44.19
2018-10-05T11:44:48.553Z,44.59
2018-10-05T11:45:48.556Z,45.18
2018-10-05T11:46:48.530Z,44.69
2018-10-05T11:47:48.536Z,44.09
2018-10-05T11:48:48.510Z,45.21
2018-10-05T11:49:48.501Z,47.60
2018-10-05T11:50:48.504Z,48.00
2018-10-05T11:51:48.494Z,46.38
2018-10-05T11:52:48.470Z,45.01
2018-10-05T11:53:48.457Z,44.81
2018-10-05T11:54:48.447Z,45.93
2018-10-05T11:55:48.436Z,47.83
2018-10-05T11:56:48.439Z,45.63
2018-10-05T11:57:48.415Z,46.13
2018-10-05T11:58:48.408Z,47.63
2018-10-05T11:59:48.534Z,47.60
2018-10-05T12:00:48.384Z,48.20
2018-10-05T12:01:48.398Z,45.81
2018-10-05T12:02:48.362Z,46.68
2018-10-05T12:03:48.352Z,46.66
2018-10-05T12:04:48.345Z,45.56
2018-10-05T12:05:48.333Z,47.03
2018-10-05T12:06:48.333Z,46.44
2018-10-05T12:07:48.325Z,45.42
2018-10-05T12:08:48.302Z,46.12
2018-10-05T12:09:48.290Z,43.95
2018-10-05T12:10:48.278Z,44.24
2018-10-05T12:11:48.271Z,43.77
2018-10-05T12:12:48.297Z,44.19
2018-10-05T12:13:48.302Z,46.58
2018-10-05T12:14:48.238Z,43.41
2018-10-05T12:15:48.226Z,46.20
2018-10-05T12:16:48.217Z,47.28
2018-10-05T12:17:48.207Z,44.69
2018-10-05T12:18:48.211Z,44.67
2018-10-05T12:19:48.226Z,44.51
2018-10-05T12:20:48.173Z,45.78
2018-10-05T12:21:48.163Z,45.71
2018-10-05T12:22:48.184Z,45.81
2018-10-05T12:23:48.141Z,45.31
2018-10-05T12:24:48.131Z,47.40
2018-10-05T12:25:48.123Z,48.48
2018-10-05T12:26:48.183Z,45.89
2018-10-05T12:27:48.098Z,44.09
2018-10-05T12:28:48.130Z,44.67
2018-10-05T12:29:48.080Z,44.67
2018-10-05T12:30:48.068Z,44.79
2018-10-05T12:31:48.059Z,44.37
2018-10-05T12:32:48.048Z,44.57
2018-10-05T12:33:48.035Z,43.65
2018-10-05T12:34:48.039Z,44.46
2018-10-05T12:35:48.021Z,43.15
2018-10-05T12:36:48.005Z,43.95
2018-10-05T12:37:47.992Z,43.47
2018-10-05T12:38:47.998Z,44.07
2018-10-05T12:39:47.972Z,43.39
2018-10-05T12:40:47.975Z,44.38
2018-10-05T12:41:47.954Z,44.61
2018-10-05T12:42:47.943Z,44.73
2018-10-05T12:43:47.933Z,45.75
2018-10-05T12:44:47.922Z,46.23
2018-10-05T12:45:47.930Z,46.92
2018-10-05T12:46:47.898Z,48.70
2018-10-05T12:47:47.889Z,46.28
2018-10-05T12:48:47.880Z,45.76
2018-10-05T12:49:47.866Z,44.05
2018-10-05T12:50:47.859Z,44.32
2018-10-05T12:51:47.888Z,44.42
2018-10-05T12:52:47.835Z,43.01